Time;durP1;ratioP1;P1;durP2;ratioP2;P2;SDS_P1;SDS_P2;PMS_P1;PMS_P2;Temp;Humidity;BMP_temperature;BMP_pressure;BME280_temperature;BME280_humidity;BME280_pressure;Samples;Min_cycle;Max_cycle;Signal;HPM_P1;HPM_P2
2021/05/17 00:01:11;;;;;;;3.20;1.58;;;;;;;8.73;82.11;99471.63;5062796;28;20090;-53
2021/05/17 00:03:42;;;;;;;3.05;1.33;;;;;;;8.69;81.10;99463.00;5063854;28;20048;-52
2021/05/17 00:06:09;;;;;;;3.40;1.50;;;;;;;8.86;80.28;99463.59;5060588;28;20055;-50
2021/05/17 00:08:35;;;;;;;3.63;1.70;;;;;;;8.84;79.52;99475.75;5031263;28;20639;-50
2021/05/17 00:11:01;;;;;;;3.40;1.60;;;;;;;8.95;80.29;99470.38;5047952;28;20117;-53
2021/05/17 00:13:27;;;;;;;2.65;1.58;;;;;;;8.95;79.52;99467.78;5076659;28;20055;-51
2021/05/17 00:15:54;;;;;;;3.83;1.60;;;;;;;9.08;79.11;99465.81;5060118;27;20173;-52
2021/05/17 00:18:20;;;;;;;4.32;1.55;;;;;;;8.97;79.08;99463.41;5060800;28;20032;-53
2021/05/17 00:20:46;;;;;;;3.80;2.00;;;;;;;8.98;81.04;99462.50;5062142;28;20040;-52
2021/05/17 00:23:12;;;;;;;3.20;1.60;;;;;;;9.07;80.96;99466.72;5061675;28;20371;-53
2021/05/17 00:25:38;;;;;;;3.90;1.90;;;;;;;9.03;80.37;99459.84;5051915;28;20048;-51
2021/05/17 00:28:04;;;;;;;2.50;1.50;;;;;;;9.01;80.02;99464.19;5043190;28;20035;-53
2021/05/17 00:30:31;;;;;;;3.78;1.45;;;;;;;8.92;80.59;99472.19;5045480;28;20040;-50
2021/05/17 00:32:58;;;;;;;3.28;1.55;;;;;;;9.04;80.19;99471.97;5059470;28;20411;-52
2021/05/17 00:35:25;;;;;;;2.70;1.63;;;;;;;8.97;80.25;99467.75;5061548;28;20051;-50
2021/05/17 00:37:51;;;;;;;3.47;1.83;;;;;;;8.96;78.60;99469.50;5038796;28;20051;-50
2021/05/17 00:40:19;;;;;;;3.35;1.70;;;;;;;9.06;80.13;99480.63;5045008;28;20530;-53
2021/05/17 00:42:46;;;;;;;3.63;1.70;;;;;;;9.01;78.29;99478.09;5061837;28;20032;-54
2021/05/17 00:45:15;;;;;;;3.67;1.73;;;;;;;8.97;77.82;99476.44;5069113;28;20377;-54
2021/05/17 00:47:44;;;;;;;4.38;2.10;;;;;;;9.26;79.42;99468.97;5044873;28;20048;-50
2021/05/17 00:50:14;;;;;;;2.97;1.75;;;;;;;9.02;80.48;99478.97;5064388;28;20036;-54
2021/05/17 00:52:40;;;;;;;4.30;1.90;;;;;;;8.97;80.06;99470.34;5059818;27;20079;-49
2021/05/17 00:55:08;;;;;;;3.75;1.67;;;;;;;8.95;80.44;99482.56;5041675;27;20528;-54
2021/05/17 00:57:34;;;;;;;3.40;1.48;;;;;;;9.10;79.74;99481.44;5079013;28;20060;-53
2021/05/17 01:00:02;;;;;;;3.50;1.90;;;;;;;8.93;80.12;99479.09;5026686;28;20589;-50
2021/05/17 01:02:30;;;;;;;4.00;2.20;;;;;;;8.89;79.22;99487.88;5073662;28;20483;-51
2021/05/17 01:05:07;;;;;;;3.65;1.88;;;;;;;8.86;79.35;99483.56;5040748;28;20206;-55
2021/05/17 01:07:35;;;;;;;3.30;1.95;;;;;;;8.97;80.11;99488.59;5060775;28;20043;-53
2021/05/17 01:10:04;;;;;;;3.70;2.47;;;;;;;8.81;81.34;99483.66;5056048;28;20060;-52
2021/05/17 01:12:34;;;;;;;3.72;2.13;;;;;;;8.77;80.36;99487.19;5043934;28;20029;-51
2021/05/17 01:15:00;;;;;;;3.08;1.88;;;;;;;8.86;80.06;99480.94;5040027;28;20032;-54
2021/05/17 01:17:30;;;;;;;5.65;2.20;;;;;;;9.12;80.51;99483.09;5053569;28;20049;-50
2021/05/17 01:20:04;;;;;;;3.92;1.83;;;;;;;8.92;80.53;99485.22;5049625;28;20384;-51
2021/05/17 01:22:47;;;;;;;4.47;2.30;;;;;;;8.89;80.05;99487.88;5059346;28;20043;-52
2021/05/17 01:25:13;;;;;;;3.50;2.00;;;;;;;9.01;80.53;99492.88;5074785;28;20330;-52
2021/05/17 01:27:40;;;;;;;4.72;2.35;;;;;;;8.91;81.13;99491.31;5061703;28;20081;-52
2021/05/17 01:30:07;;;;;;;4.68;2.30;;;;;;;8.91;80.30;99486.09;5060398;28;20044;-53
2021/05/17 01:32:34;;;;;;;4.88;2.20;;;;;;;8.86;81.26;99491.38;5055845;28;20746;-51
2021/05/17 01:35:01;;;;;;;5.95;2.50;;;;;;;8.86;82.04;99494.88;5058215;28;20663;-51
2021/05/17 01:37:32;;;;;;;5.38;2.60;;;;;;;8.84;80.92;99493.16;5059737;28;20055;-50
2021/05/17 01:40:00;;;;;;;3.75;2.33;;;;;;;8.96;80.57;99490.34;5061790;28;20089;-54
2021/05/17 01:42:28;;;;;;;4.10;2.38;;;;;;;8.86;83.25;99489.66;5042036;28;20024;-52
2021/05/17 01:44:54;;;;;;;4.13;2.30;;;;;;;8.60;84.18;99489.19;5075211;27;20119;-50
2021/05/17 01:47:30;;;;;;;4.50;2.38;;;;;;;8.86;83.27;99494.88;5034502;28;20287;-52
2021/05/17 01:49:58;;;;;;;4.50;2.40;;;;;;;8.71;83.72;99495.13;5051193;28;20044;-55
2021/05/17 01:52:26;;;;;;;4.50;2.65;;;;;;;9.02;83.65;99489.38;5061601;28;20395;-50
2021/05/17 01:54:52;;;;;;;4.00;2.42;;;;;;;8.87;84.29;99490.50;5062234;28;20036;-51
2021/05/17 01:57:20;;;;;;;4.40;2.55;;;;;;;8.79;83.69;99498.47;5065195;28;20404;-53
2021/05/17 01:59:46;;;;;;;6.15;2.60;;;;;;;8.65;84.17;99498.69;5048031;28;20043;-51
2021/05/17 02:02:12;;;;;;;4.40;2.35;;;;;;;8.59;85.24;99495.31;5062325;28;20044;-54
2021/05/17 02:04:38;;;;;;;4.38;2.40;;;;;;;8.66;85.24;99492.56;5030857;28;20504;-53
2021/05/17 02:07:04;;;;;;;5.28;2.83;;;;;;;8.56;85.07;99491.00;5048321;28;20032;-53
2021/05/17 02:09:31;;;;;;;3.80;2.17;;;;;;;8.63;82.79;99491.78;5066418;28;20670;-54
2021/05/17 02:11:58;;;;;;;6.82;2.88;;;;;;;8.73;85.14;99493.31;5063995;28;20070;-51
2021/05/17 02:14:53;;;;;;;3.80;2.40;;;;;;;8.61;84.68;99494.41;5044439;28;20040;-52
2021/05/17 02:17:21;;;;;;;5.93;2.25;;;;;;;8.80;84.02;99484.53;5057163;28;20040;-54
2021/05/17 02:19:48;;;;;;;5.20;2.70;;;;;;;8.73;85.13;99488.13;5044264;28;20044;-51
2021/05/17 02:22:20;;;;;;;3.35;2.05;;;;;;;8.91;83.49;99484.34;5063153;28;20104;-50
2021/05/17 02:24:56;;;;;;;4.00;2.15;;;;;;;8.89;83.30;99482.66;5061280;28;20059;-54
2021/05/17 02:27:22;;;;;;;5.50;2.15;;;;;;;8.84;83.53;99490.56;5047208;28;20059;-55
2021/05/17 02:29:49;;;;;;;3.58;2.35;;;;;;;9.00;83.60;99485.97;5042156;28;20040;-54
2021/05/17 02:32:22;;;;;;;5.35;2.75;;;;;;;8.71;84.35;99491.63;5064898;28;20061;-53
2021/05/17 02:34:50;;;;;;;5.03;2.20;;;;;;;8.71;83.07;99491.63;5074771;27;20244;-53
2021/05/17 02:37:17;;;;;;;3.58;2.20;;;;;;;8.73;83.86;99495.09;5060769;28;20104;-53
2021/05/17 02:39:44;;;;;;;5.18;2.25;;;;;;;8.70;82.59;99488.19;5033409;28;20035;-53
2021/05/17 02:42:15;;;;;;;3.40;1.92;;;;;;;8.76;82.49;99489.81;5046116;28;20418;-53
2021/05/17 02:44:41;;;;;;;5.60;2.00;;;;;;;8.78;83.76;99494.13;5060587;28;20688;-55
2021/05/17 02:47:08;;;;;;;4.63;2.47;;;;;;;8.74;82.82;99495.06;5065055;28;20055;-52
2021/05/17 02:49:35;;;;;;;3.92;1.90;;;;;;;8.77;83.25;99486.34;5063385;28;20047;-54
2021/05/17 02:52:02;;;;;;;4.68;1.90;;;;;;;8.87;82.04;99495.72;5067953;28;20542;-55
2021/05/17 02:54:32;;;;;;;4.82;1.80;;;;;;;8.96;82.57;99486.91;5084083;28;20094;-56
2021/05/17 02:56:58;;;;;;;3.95;1.73;;;;;;;8.95;82.35;99487.78;5043352;28;20313;-51
2021/05/17 02:59:58;;;;;;;3.28;2.00;;;;;;;8.96;80.71;99484.28;5024192;28;20037;-51
2021/05/17 03:02:29;;;;;;;3.50;1.63;;;;;;;9.00;81.39;99484.19;5065039;28;20028;-55
2021/05/17 03:04:57;;;;;;;4.03;1.73;;;;;;;8.99;80.21;99494.66;5068574;28;20045;-54
2021/05/17 03:07:28;;;;;;;3.63;1.70;;;;;;;9.03;80.84;99493.72;5065120;27;20043;-50
2021/05/17 03:09:55;;;;;;;4.43;1.95;;;;;;;9.14;83.02;99491.78;5049536;28;20480;-55
2021/05/17 03:12:22;;;;;;;5.07;2.00;;;;;;;8.95;82.50;99493.00;5046068;28;20036;-51
2021/05/17 03:14:50;;;;;;;2.92;1.70;;;;;;;8.91;82.05;99501.75;5059207;28;20415;-50
2021/05/17 03:17:18;;;;;;;3.63;1.85;;;;;;;8.93;82.69;99502.56;5081614;28;20062;-54
2021/05/17 03:19:47;;;;;;;3.85;2.17;;;;;;;9.02;83.54;99505.88;5059582;28;20044;-50
2021/05/17 03:22:13;;;;;;;3.85;1.92;;;;;;;8.86;82.62;99502.69;5044172;28;20051;-54
2021/05/17 03:24:41;;;;;;;5.10;1.88;;;;;;;8.92;82.51;99508.69;5044867;28;20068;-53
2021/05/17 03:27:24;;;;;;;2.75;1.63;;;;;;;8.83;81.89;99497.53;5062148;28;20856;-52
2021/05/17 03:29:51;;;;;;;3.35;1.80;;;;;;;8.85;81.38;99503.56;5064338;28;20648;-51
2021/05/17 03:32:17;;;;;;;4.20;1.98;;;;;;;9.11;82.64;99493.56;5046544;28;20404;-51
2021/05/17 03:34:43;;;;;;;5.40;1.80;;;;;;;8.88;83.26;99501.81;5061856;27;20383;-52
2021/05/17 03:37:08;;;;;;;3.10;1.88;;;;;;;8.95;83.72;99503.41;5065224;28;20140;-51
2021/05/17 03:39:34;;;;;;;3.75;1.80;;;;;;;8.79;83.85;99503.69;5064484;28;20035;-53
2021/05/17 03:42:00;;;;;;;3.63;2.20;;;;;;;8.86;82.75;99512.22;5048354;28;20232;-50
2021/05/17 03:44:26;;;;;;;3.45;2.13;;;;;;;8.88;81.85;99507.00;5063634;28;20040;-55
2021/05/17 03:46:51;;;;;;;3.63;1.65;;;;;;;8.84;81.69;99507.03;5061179;28;20032;-52
2021/05/17 03:49:17;;;;;;;3.20;1.75;;;;;;;8.90;83.07;99510.44;5064526;28;20504;-53
2021/05/17 03:51:43;;;;;;;3.55;1.80;;;;;;;8.89;80.35;99519.13;5064985;28;20040;-55
2021/05/17 03:54:08;;;;;;;4.95;1.90;;;;;;;8.91;80.92;99512.16;5062435;28;20504;-51
2021/05/17 03:56:34;;;;;;;2.90;1.60;;;;;;;8.93;80.65;99513.00;5060821;28;20040;-54
2021/05/17 03:59:00;;;;;;;2.80;1.83;;;;;;;9.04;83.50;99513.66;5061220;28;20685;-53
2021/05/17 04:01:25;;;;;;;3.63;2.05;;;;;;;9.11;82.75;99510.09;5058879;28;20039;-50
2021/05/17 04:03:54;;;;;;;5.78;2.10;;;;;;;9.06;83.87;99511.91;5060683;28;20103;-53
2021/05/17 04:06:43;;;;;;;4.45;1.70;;;;;;;8.98;82.90;99511.19;5064559;28;20031;-50
2021/05/17 04:14:38;;;;;;;3.67;1.95;;;;;;;9.00;83.28;99512.88;5064320;28;20476;-53
2021/05/17 04:17:03;;;;;;;3.75;1.90;;;;;;;9.04;81.97;99524.09;5042882;28;20127;-54
2021/05/17 04:19:29;;;;;;;4.20;1.80;;;;;;;9.08;81.66;99517.09;5052909;28;20040;-51
2021/05/17 04:21:55;;;;;;;2.90;1.60;;;;;;;9.03;80.38;99519.78;5064016;28;20032;-51
2021/05/17 04:24:21;;;;;;;5.05;1.90;;;;;;;9.15;81.61;99521.31;5064028;28;20036;-53
2021/05/17 04:26:47;;;;;;;4.40;1.70;;;;;;;9.05;81.31;99523.22;5041135;28;20552;-51
2021/05/17 04:29:13;;;;;;;6.35;2.08;;;;;;;9.28;82.41;99525.44;5062363;28;20050;-51
2021/05/17 04:31:39;;;;;;;5.22;1.92;;;;;;;9.17;83.12;99525.63;5063932;28;20371;-55
2021/05/17 04:34:05;;;;;;;2.25;1.52;;;;;;;9.17;81.77;99525.63;5047862;28;20097;-53
2021/05/17 04:36:31;;;;;;;4.15;2.05;;;;;;;9.32;82.29;99528.88;5079765;28;20037;-53
2021/05/17 04:39:02;;;;;;;4.45;1.90;;;;;;;9.14;83.14;99530.03;5026654;28;20044;-51
2021/05/17 04:41:28;;;;;;;3.30;1.85;;;;;;;9.14;81.05;99532.66;5058851;28;20232;-50
2021/05/17 04:43:54;;;;;;;3.42;1.80;;;;;;;9.27;79.91;99531.53;5062500;28;20123;-54
2021/05/17 04:46:23;;;;;;;3.72;2.05;;;;;;;9.50;82.51;99536.34;5070936;28;20488;-52
2021/05/17 04:48:49;;;;;;;4.18;1.95;;;;;;;9.53;82.48;99538.88;5061239;28;20448;-54
2021/05/17 04:51:19;;;;;;;4.00;2.10;;;;;;;9.51;81.70;99538.06;5069536;28;20103;-51
2021/05/17 04:53:45;;;;;;;5.53;2.00;;;;;;;9.46;82.80;99539.03;5070205;28;21027;-50
2021/05/17 04:56:11;;;;;;;3.60;1.95;;;;;;;9.28;81.81;99543.69;5067978;28;20044;-53
2021/05/17 04:58:37;;;;;;;4.43;1.90;;;;;;;9.20;80.96;99536.00;5063025;28;20316;-50
2021/05/17 05:01:03;;;;;;;3.47;2.15;;;;;;;9.33;83.40;99541.00;5045957;28;20040;-51
2021/05/17 05:03:29;;;;;;;4.60;2.10;;;;;;;9.45;82.24;99540.78;5052982;28;20029;-53
2021/05/17 05:05:59;;;;;;;3.38;2.00;;;;;;;9.52;82.77;99542.38;5069338;28;20413;-50
2021/05/17 05:08:25;;;;;;;2.90;1.75;;;;;;;9.46;82.40;99541.66;5083611;28;20063;-53
2021/05/17 05:10:51;;;;;;;3.45;1.85;;;;;;;9.28;81.85;99548.06;5071197;28;20077;-51
2021/05/17 05:13:17;;;;;;;3.50;2.03;;;;;;;9.20;82.07;99541.19;5067770;28;20056;-50
2021/05/17 05:15:43;;;;;;;4.32;2.15;;;;;;;9.40;80.83;99547.84;5071402;28;20498;-52
2021/05/17 05:18:09;;;;;;;3.60;2.20;;;;;;;9.63;83.27;99546.56;5070363;27;20070;-50
2021/05/17 05:20:35;;;;;;;3.38;1.63;;;;;;;9.48;81.53;99547.69;5056229;28;20335;-52
2021/05/17 05:23:02;;;;;;;4.82;1.80;;;;;;;9.38;80.90;99550.44;5078113;28;20104;-52
2021/05/17 05:31:12;;;;;;;4.30;2.20;;;;;;;9.62;82.86;99550.94;5072909;28;20662;-54
2021/05/17 05:33:38;;;;;;;3.72;2.20;;;;;;;9.48;81.38;99545.09;5058010;28;20471;-50
2021/05/17 05:36:04;;;;;;;5.28;2.22;;;;;;;9.62;82.69;99552.66;5071639;28;20048;-50
2021/05/17 05:38:30;;;;;;;3.90;2.13;;;;;;;9.47;81.13;99559.88;5041897;28;20511;-50
2021/05/17 05:40:55;;;;;;;4.50;2.40;;;;;;;9.45;82.77;99551.22;5037938;28;20144;-50
2021/05/17 05:43:21;;;;;;;4.85;2.50;;;;;;;9.52;80.42;99552.81;5057480;28;20044;-50
2021/05/17 05:45:48;;;;;;;4.35;2.65;;;;;;;9.49;82.29;99552.88;5069699;28;20125;-52
2021/05/17 05:48:14;;;;;;;4.50;2.45;;;;;;;9.57;80.58;99546.66;5054294;28;20044;-51
2021/05/17 05:50:39;;;;;;;5.90;2.72;;;;;;;9.84;82.24;99553.97;5082297;28;20071;-51
2021/05/17 05:53:06;;;;;;;3.80;2.40;;;;;;;9.71;81.56;99555.94;5089936;27;20079;-52
2021/05/17 05:55:33;;;;;;;4.32;2.60;;;;;;;9.66;82.75;99557.81;5073492;28;20589;-51
2021/05/17 05:57:59;;;;;;;3.45;2.28;;;;;;;9.76;81.86;99555.00;5072078;28;20290;-50
2021/05/17 06:00:30;;;;;;;5.65;2.78;;;;;;;9.64;81.51;99556.13;5076364;28;20032;-50
2021/05/17 06:02:59;;;;;;;4.95;2.55;;;;;;;9.77;82.08;99551.50;5075042;28;20370;-51
2021/05/17 06:05:25;;;;;;;5.85;2.55;;;;;;;9.67;81.89;99563.88;5053405;28;20083;-51
2021/05/17 06:07:51;;;;;;;4.40;2.53;;;;;;;9.59;82.22;99563.16;5053902;28;20155;-54
2021/05/17 06:10:17;;;;;;;6.40;2.80;;;;;;;9.84;81.16;99553.97;5067063;28;20036;-53
2021/05/17 06:12:45;;;;;;;5.57;2.85;;;;;;;10.21;80.71;99565.44;5050147;28;20322;-50
2021/05/17 06:15:12;;;;;;;5.88;2.80;;;;;;;10.24;81.01;99562.75;5076149;28;20658;-50
2021/05/17 06:17:39;;;;;;;5.53;2.90;;;;;;;10.23;79.78;99568.84;5071966;28;20044;-51
2021/05/17 06:20:06;;;;;;;5.28;2.80;;;;;;;10.04;80.96;99560.56;5073597;28;20098;-50
2021/05/17 06:22:36;;;;;;;4.95;2.88;;;;;;;10.35;79.65;99562.56;5064072;28;20210;-50
2021/05/17 06:25:05;;;;;;;8.18;3.25;;;;;;;10.41;80.00;99569.41;5072345;28;20397;-53
2021/05/17 06:27:31;;;;;;;4.82;3.05;;;;;;;10.26;79.58;99573.16;5079100;28;20385;-53
2021/05/17 06:29:58;;;;;;;5.40;3.03;;;;;;;10.30;79.70;99564.34;5081183;28;20251;-49
2021/05/17 06:32:27;;;;;;;6.35;2.70;;;;;;;10.45;79.08;99569.28;5073057;28;20041;-49
2021/05/17 06:34:55;;;;;;;5.57;2.78;;;;;;;10.21;79.46;99566.28;5072476;28;20126;-50
2021/05/17 06:37:20;;;;;;;7.65;2.95;;;;;;;10.30;79.88;99565.25;5078864;28;20071;-50
2021/05/17 06:39:46;;;;;;;6.20;3.08;;;;;;;10.36;80.67;99574.72;5060309;28;20436;-52
2021/05/17 06:42:13;;;;;;;5.75;2.83;;;;;;;10.43;78.57;99568.47;5064752;28;20039;-51
2021/05/17 06:44:39;;;;;;;4.32;2.50;;;;;;;10.35;80.40;99576.47;5061187;28;20149;-49
2021/05/17 06:47:06;;;;;;;4.18;2.40;;;;;;;10.40;78.98;99573.78;5061023;28;20049;-52
2021/05/17 06:49:32;;;;;;;7.30;2.38;;;;;;;10.46;79.50;99573.63;5066172;28;20147;-50
2021/05/17 06:52:00;;;;;;;4.43;2.50;;;;;;;10.56;79.40;99572.53;5082573;28;20119;-50
2021/05/17 06:54:28;;;;;;;5.25;2.60;;;;;;;10.39;79.62;99580.72;5079627;28;20026;-52
2021/05/17 06:59:23;;;;;;;4.82;2.40;;;;;;;10.66;79.39;99580.16;5080559;28;20044;-49
2021/05/17 07:01:49;;;;;;;5.82;2.83;;;;;;;10.65;78.97;99586.31;5078102;28;20048;-50
2021/05/17 07:04:16;;;;;;;4.60;2.55;;;;;;;10.67;79.86;99597.56;5071052;28;20044;-50
2021/05/17 07:06:59;;;;;;;5.72;2.70;;;;;;;10.61;80.22;99593.34;5075125;28;20579;-51
2021/05/17 07:12:11;;;;;;;5.60;2.55;;;;;;;10.41;79.65;99598.13;5073068;28;20044;-50
2021/05/17 07:14:37;;;;;;;5.03;2.95;;;;;;;10.30;80.35;99600.94;5071236;28;20690;-50
2021/05/17 07:17:03;;;;;;;5.70;2.95;;;;;;;10.52;81.96;99606.59;5067209;28;20051;-53
2021/05/17 07:19:28;;;;;;;7.22;3.22;;;;;;;10.34;80.47;99603.50;5067255;28;20421;-52
2021/05/17 07:24:38;;;;;;;7.20;2.97;;;;;;;10.31;81.03;99600.91;5072506;28;20384;-49
2021/05/17 07:27:05;;;;;;;5.40;2.72;;;;;;;10.41;83.28;99601.59;5055907;28;20045;-50
2021/05/17 07:29:33;;;;;;;5.25;2.72;;;;;;;10.74;81.88;99599.16;5066765;28;20465;-52
2021/05/17 07:31:59;;;;;;;5.40;2.95;;;;;;;10.56;80.79;99601.28;5066406;28;20051;-50
2021/05/17 07:34:29;;;;;;;7.03;2.95;;;;;;;10.49;80.07;99604.91;5066030;28;20458;-50
2021/05/17 07:36:55;;;;;;;4.72;2.90;;;;;;;10.86;82.55;99598.88;5060363;28;20341;-51
2021/05/17 07:39:21;;;;;;;4.75;2.97;;;;;;;10.79;80.08;99605.13;5066563;28;21080;-50
2021/05/17 07:41:47;;;;;;;5.63;3.22;;;;;;;11.07;82.21;99601.88;5049962;28;20322;-51
2021/05/17 07:44:13;;;;;;;5.13;1.70;;;;;;;11.19;76.21;99595.50;5062356;28;20040;-49
2021/05/17 07:46:39;;;;;;;3.03;1.30;;;;;;;11.22;76.07;99598.03;5065676;28;20044;-50
2021/05/17 07:51:31;;;;;;;4.25;1.40;;;;;;;11.17;75.92;99602.53;5064278;28;20047;-50
2021/05/17 07:53:57;;;;;;;3.40;1.13;;;;;;;11.32;74.10;99596.06;5064935;28;20193;-49
2021/05/17 07:56:23;;;;;;;7.07;1.58;;;;;;;11.47;72.41;99594.81;5065369;28;20097;-48
2021/05/17 07:58:51;;;;;;;3.08;1.15;;;;;;;11.25;73.48;99600.56;5045017;28;20074;-49
2021/05/17 08:01:18;;;;;;;2.95;1.50;;;;;;;11.47;72.39;99594.81;5066058;28;20507;-49
2021/05/17 08:03:46;;;;;;;5.40;1.50;;;;;;;11.48;73.32;99592.16;5071727;28;20333;-49
2021/05/17 08:06:13;;;;;;;4.35;1.15;;;;;;;11.72;69.57;99589.78;5052305;28;20496;-49
2021/05/17 08:08:39;;;;;;;2.30;1.10;;;;;;;11.85;69.81;99598.16;5052847;28;20048;-49
2021/05/17 08:11:06;;;;;;;3.50;1.05;;;;;;;11.95;69.86;99602.31;5050710;28;20046;-51
2021/05/17 08:13:32;;;;;;;3.67;1.30;;;;;;;12.06;68.69;99591.53;5070598;28;20040;-49
2021/05/17 08:16:01;;;;;;;1.08;0.73;;;;;;;12.04;66.38;99586.31;5067559;28;20067;-51
2021/05/17 08:18:26;;;;;;;4.75;1.10;;;;;;;11.84;66.71;99599.09;5083160;28;20400;-49
2021/05/17 08:20:52;;;;;;;4.22;1.23;;;;;;;11.84;66.22;99594.72;5063864;28;20071;-50
2021/05/17 08:23:18;;;;;;;2.63;0.90;;;;;;;11.95;67.85;99596.19;5065980;28;20048;-50
2021/05/17 08:25:47;;;;;;;4.90;1.63;;;;;;;12.07;66.58;99601.97;5046692;28;20428;-51
2021/05/17 08:28:14;;;;;;;2.50;1.17;;;;;;;11.96;67.64;99600.53;5057592;28;21788;-49
2021/05/17 08:30:43;;;;;;;3.13;0.90;;;;;;;11.96;65.55;99605.78;5027936;28;20052;-49
2021/05/17 08:33:12;;;;;;;3.45;0.82;;;;;;;11.92;65.29;99597.97;5044006;28;20037;-50
2021/05/17 08:35:57;;;;;;;2.00;1.02;;;;;;;11.89;65.57;99603.31;5057123;28;20479;-49
2021/05/17 08:38:23;;;;;;;2.67;1.10;;;;;;;11.61;66.09;99595.31;5051050;28;20048;-49
2021/05/17 08:40:48;;;;;;;2.17;0.80;;;;;;;11.84;67.82;99596.47;5029399;28;20040;-49
2021/05/17 08:43:14;;;;;;;3.10;0.95;;;;;;;11.81;65.50;99602.66;5060363;28;20714;-51
2021/05/17 08:45:41;;;;;;;3.70;0.93;;;;;;;11.75;65.49;99608.03;5065776;28;20788;-49
2021/05/17 08:48:25;;;;;;;1.67;0.80;;;;;;;11.53;66.78;99606.00;5048639;28;20698;-50
2021/05/17 08:51:09;;;;;;;3.17;0.90;;;;;;;11.51;68.11;99617.41;5044154;28;20956;-49
2021/05/17 08:53:58;;;;;;;1.42;0.80;;;;;;;11.46;69.27;99619.25;5040014;28;20063;-49
2021/05/17 08:56:45;;;;;;;2.80;1.00;;;;;;;11.36;70.76;99619.47;5056380;28;20071;-51
2021/05/17 08:59:31;;;;;;;3.03;1.25;;;;;;;11.46;71.87;99617.50;5059368;28;20051;-49
2021/05/17 09:02:15;;;;;;;3.35;1.02;;;;;;;11.30;73.61;99616.16;5060623;28;20102;-50
2021/05/17 09:05:08;;;;;;;4.45;1.33;;;;;;;11.37;73.21;99625.59;5064275;28;20613;-52
2021/05/17 09:07:56;;;;;;;2.90;0.95;;;;;;;11.39;72.80;99623.78;5063491;28;20732;-49
2021/05/17 09:10:41;;;;;;;3.17;1.17;;;;;;;11.15;76.05;99627.88;5072641;28;20050;-49
2021/05/17 09:13:25;;;;;;;2.63;1.00;;;;;;;11.49;73.22;99625.28;5060170;28;20059;-51
2021/05/17 09:16:09;;;;;;;2.20;0.95;;;;;;;11.57;71.43;99622.47;5065021;28;20047;-49
2021/05/17 09:18:53;;;;;;;4.40;1.20;;;;;;;11.43;73.31;99622.81;5063782;28;20070;-52
2021/05/17 09:22:04;;;;;;;3.22;1.00;;;;;;;11.73;70.81;99622.94;5064064;28;20133;-49
2021/05/17 09:24:53;;;;;;;3.75;1.00;;;;;;;11.72;69.76;99626.44;5041551;28;20539;-49
2021/05/17 09:27:37;;;;;;;1.95;1.00;;;;;;;11.84;70.78;99623.50;5065297;28;20043;-49
2021/05/17 09:30:21;;;;;;;1.75;1.10;;;;;;;11.90;71.99;99618.09;5061802;28;20346;-51
2021/05/17 09:33:08;;;;;;;3.22;1.00;;;;;;;11.87;71.02;99620.81;5060125;28;20499;-52
2021/05/17 09:35:52;;;;;;;2.40;1.17;;;;;;;12.01;69.51;99619.63;5047294;28;20192;-48
2021/05/17 09:38:20;;;;;;;3.45;1.30;;;;;;;12.18;70.32;99614.75;5050043;28;20044;-51
2021/05/17 09:40:47;;;;;;;2.30;1.00;;;;;;;12.46;68.40;99615.72;5060652;28;20037;-50
2021/05/17 09:43:16;;;;;;;2.58;0.93;;;;;;;12.73;69.03;99616.66;5062322;28;20097;-50
2021/05/17 09:45:47;;;;;;;2.08;0.88;;;;;;;13.04;68.48;99606.09;5043124;28;20037;-50
2021/05/17 09:48:21;;;;;;;3.17;1.00;;;;;;;13.13;63.78;99607.56;5039687;28;20461;-49
2021/05/17 09:51:02;;;;;;;2.75;1.65;;;;;;;13.19;63.73;99609.13;5061011;28;20036;-51
2021/05/17 09:53:31;;;;;;;1.63;0.90;;;;;;;13.17;63.59;99603.09;5060529;28;20040;-52
2021/05/17 09:55:56;;;;;;;;;;;;;;;13.12;65.40;99611.06;5063949;28;20062;-51
2021/05/17 09:58:27;;;;;;;3.70;0.90;;;;;;;13.20;63.51;99610.84;5039715;28;19920;-50
2021/05/17 10:01:04;;;;;;;3.88;0.88;;;;;;;13.15;62.80;99597.84;5024904;28;20112;-50
2021/05/17 10:03:45;;;;;;;3.85;1.05;;;;;;;13.23;62.91;99595.84;5062469;28;20077;-49
2021/05/17 10:06:22;;;;;;;6.97;1.00;;;;;;;13.11;62.47;99607.59;5062355;28;20594;-53
2021/05/17 10:08:49;;;;;;;3.22;1.13;;;;;;;13.12;61.58;99597.97;5062349;28;20228;-49
2021/05/17 10:11:16;;;;;;;3.65;1.20;;;;;;;13.08;62.58;99591.97;5051775;28;20079;-49
2021/05/17 10:13:43;;;;;;;2.03;0.90;;;;;;;13.29;61.83;99595.66;5055973;28;20051;-49
2021/05/17 10:16:13;;;;;;;2.55;0.77;;;;;;;13.28;61.21;99588.69;5067270;28;20112;-51
2021/05/17 10:18:40;;;;;;;6.00;1.45;;;;;;;13.32;63.62;99591.19;5069551;28;20047;-53
2021/05/17 10:21:09;;;;;;;0.95;0.73;;;;;;;13.39;60.51;99584.88;5067846;28;20173;-50
2021/05/17 10:23:38;;;;;;;2.00;1.00;;;;;;;13.13;61.77;99588.34;5061852;28;20112;-50
2021/05/17 10:26:14;;;;;;;2.08;1.13;;;;;;;12.89;62.10;99578.56;5066189;28;20545;-48
2021/05/17 10:28:43;;;;;;;2.85;0.90;;;;;;;12.95;62.56;99586.25;5066889;28;20047;-50
2021/05/17 10:31:15;;;;;;;2.97;1.10;;;;;;;12.83;65.51;99604.13;5064960;28;20063;-52
2021/05/17 10:33:43;;;;;;;6.63;2.53;;;;;;;12.43;69.33;99611.44;5050911;28;20027;-49
2021/05/17 10:36:09;;;;;;;7.53;2.10;;;;;;;12.11;74.19;99607.97;5060043;28;20647;-51
2021/05/17 10:38:43;;;;;;;3.80;1.38;;;;;;;11.81;78.14;99604.38;5047482;28;20056;-50
2021/05/17 10:41:22;;;;;;;4.88;1.60;;;;;;;11.69;80.22;99593.34;5064742;28;20043;-51
2021/05/17 10:46:46;;;;;;;5.20;1.67;;;;;;;11.53;80.58;99598.16;5060986;28;20044;-50
2021/05/17 10:49:28;;;;;;;4.72;1.83;;;;;;;11.40;83.10;99615.91;5063395;28;20042;-50
2021/05/17 10:52:05;;;;;;;6.28;2.00;;;;;;;11.15;82.39;99610.41;5061486;28;20080;-50
2021/05/17 10:54:33;;;;;;;4.13;1.88;;;;;;;11.20;80.96;99608.56;5076272;27;20056;-51
2021/05/17 10:57:02;;;;;;;;;;;;;;;11.16;83.89;99612.13;5080723;27;20044;-51
2021/05/17 11:02:25;;;;;;;2.20;1.20;;;;;;;10.99;82.10;99620.34;5038807;27;20084;-56
2021/05/17 11:04:50;;;;;;;2.17;1.08;;;;;;;11.21;79.69;99610.25;5041299;28;20722;-56
2021/05/17 11:07:28;;;;;;;0.73;0.70;;;;;;;11.27;81.13;99611.00;5038910;28;20113;-51
2021/05/17 11:09:55;;;;;;;1.27;0.90;;;;;;;11.25;82.33;99605.81;5058162;28;20036;-55
2021/05/17 11:12:26;;;;;;;2.72;0.88;;;;;;;11.33;81.50;99613.47;5063478;28;20687;-55
2021/05/17 11:15:13;;;;;;;6.40;1.40;;;;;;;11.44;81.48;99608.84;5057817;28;20042;-52
2021/05/17 11:17:54;;;;;;;2.90;1.10;;;;;;;11.62;81.90;99607.50;5073856;27;20480;-52
2021/05/17 11:20:38;;;;;;;1.27;0.90;;;;;;;12.07;78.47;99596.72;5055524;28;20052;-53
2021/05/17 11:23:05;;;;;;;2.22;0.80;;;;;;;12.11;78.82;99618.44;5058326;28;20079;-51
2021/05/17 11:25:49;;;;;;;2.63;0.90;;;;;;;12.05;79.55;99613.38;5041950;28;20052;-53
2021/05/17 11:28:17;;;;;;;1.20;0.70;;;;;;;11.82;79.18;99620.06;5064423;28;20062;-51
2021/05/17 11:30:45;;;;;;;2.43;0.80;;;;;;;11.70;80.45;99625.63;5045032;28;20063;-53
2021/05/17 11:33:20;;;;;;;1.73;0.90;;;;;;;11.48;79.46;99627.91;5043191;28;20777;-50
2021/05/17 11:36:15;;;;;;;1.27;0.85;;;;;;;11.31;80.60;99634.47;5049177;28;20560;-53
2021/05/17 11:39:19;;;;;;;2.47;1.00;;;;;;;11.21;82.36;99633.78;5059589;28;20048;-51
2021/05/17 11:41:54;;;;;;;1.27;0.88;;;;;;;11.54;78.87;99633.03;5044117;28;20472;-54
2021/05/17 11:44:23;;;;;;;1.42;0.60;;;;;;;11.81;76.82;99634.06;5070565;28;20074;-51
2021/05/17 11:46:53;;;;;;;2.55;0.90;;;;;;;11.81;76.90;99643.66;5046335;28;20307;-50
2021/05/17 11:49:20;;;;;;;2.85;0.90;;;;;;;11.88;77.92;99637.38;5043415;28;20044;-53
2021/05/17 11:51:57;;;;;;;1.93;0.80;;;;;;;11.87;77.91;99643.53;5045885;28;20067;-52
2021/05/17 11:54:25;;;;;;;1.50;0.90;;;;;;;11.89;74.97;99653.06;5061598;28;20610;-52
2021/05/17 11:56:57;;;;;;;4.27;1.33;;;;;;;11.82;74.10;99653.25;5060175;28;20040;-53
2021/05/17 11:59:25;;;;;;;1.30;0.80;;;;;;;11.49;75.91;99656.69;5042211;28;20068;-54
2021/05/17 12:01:56;;;;;;;1.80;0.77;;;;;;;11.22;77.92;99661.69;5057303;28;20137;-50
2021/05/17 12:04:22;;;;;;;4.95;1.10;;;;;;;11.04;80.51;99657.72;5067675;27;20060;-51
2021/05/17 12:06:55;;;;;;;2.28;1.17;;;;;;;11.07;81.61;99659.41;5054946;28;20089;-50
2021/05/17 12:09:45;;;;;;;2.85;1.00;;;;;;;11.04;79.21;99662.13;5047047;28;20036;-49
2021/05/17 12:12:11;;;;;;;3.88;1.02;;;;;;;10.78;79.88;99657.47;5057209;28;20627;-49
2021/05/17 12:14:42;;;;;;;4.00;1.17;;;;;;;10.61;81.19;99656.06;5056809;28;20683;-50
2021/05/17 12:17:11;;;;;;;2.65;1.30;;;;;;;10.61;82.20;99656.06;5058359;28;20039;-51
2021/05/17 12:19:38;;;;;;;2.67;1.33;;;;;;;10.61;82.59;99655.22;5056612;28;20508;-50